Gum Springs Road, Louisiana
Current Conditions -  °F | °C
As of 5:55 AM on Saturday 20 Dec 2014 (Local Time) from KIER Reporting Station
Overcast Overcast  
Wind Chill: 43°   Ceiling: 500
Heat Index: 47°   Visibility: 7mi
Dew Point: 46°   Wind: 7mph
Humidity: 96%   Direction: 20°NNE
Pressure: 30.19"   Gusts: NA
Location:  31.8476°N, 92.7651°W
Report Text: KIER 201155Z AUTO 02006KT 7SM OVC005 08/08 A3019 RMK AO2 T00810075 10086 20081
Loading
Personal Weather Stations






























Interactive Weather Map New forecast layout! Learn more

10-Day Weather Forecast

Advertisements
Track Severe Weather on mobile